Terminal Aerodrome Forecast
Issued by NWS

Home | Current Version | Previous Version | Text Only | Print | Product List | Glossary Off
Versions: 1 2 3 4 5 6 7 8 9 10 11 12 13 14 15 16 17 18

000
FTUS43 KFGF 231700
TAFBJI
TAF
KBJI 231722Z 2318/2418 17012KT P6SM FEW120
     FM232000 17013G18KT P6SM SCT120
     FM240400 16010KT P6SM BKN040
     FM240700 15008KT P6SM VCSH BKN025=

USA.gov is the U.S. government's official web portal to all federal, state and local government web resources and services.